Mount Gilead, Ohio
Current Conditions -  °F | °C
As of 3:53 PM on Sunday 21 Dec 2014 (Local Time) from KMNN Reporting Station
Haze Haze  
Wind Chill: 29°   Ceiling: Unl
Heat Index: 35°   Visibility: 6mi
Dew Point: 22°   Wind: 8mph
Humidity: 59%   Direction: 160°SSE
Pressure: 30.21"   Gusts: NA
Location:  40.55°N, 82.83°W
Report Text: KMNN 212053Z AUTO 16007KT 6SM HZ CLR 02/M06 A3021 RMK AO2 SLP240 T00171056 56017 TSNO
Loading
Personal Weather Stations






























Interactive Weather Map New forecast layout! Learn more

10-Day Weather Forecast

Advertisements
Track Severe Weather on mobile